sensor_id;sensor_type;location;lat;lon;timestamp;P1;durP1;ratioP1;P2;durP2;ratioP2
4305;SDS011;2166;49.926;8.608;2023-12-14T00:01:54;120.53;;;27.08;;
4305;SDS011;2166;49.926;8.608;2023-12-14T00:04:22;268.85;;;35.00;;
4305;SDS011;2166;49.926;8.608;2023-12-14T00:06:53;147.77;;;28.90;;
4305;SDS011;2166;49.926;8.608;2023-12-14T00:09:23;95.20;;;25.33;;
4305;SDS011;2166;49.926;8.608;2023-12-14T00:11:52;108.65;;;24.90;;
4305;SDS011;2166;49.926;8.608;2023-12-14T00:14:20;220.65;;;32.10;;
4305;SDS011;2166;49.926;8.608;2023-12-14T00:16:50;330.25;;;35.60;;
4305;SDS011;2166;49.926;8.608;2023-12-14T00:19:20;294.50;;;32.70;;
4305;SDS011;2166;49.926;8.608;2023-12-14T00:21:51;331.83;;;35.30;;
4305;SDS011;2166;49.926;8.608;2023-12-14T00:24:20;350.92;;;34.40;;
4305;SDS011;2166;49.926;8.608;2023-12-14T00:26:48;308.92;;;34.78;;
4305;SDS011;2166;49.926;8.608;2023-12-14T00:29:17;536.67;;;43.17;;
4305;SDS011;2166;49.926;8.608;2023-12-14T00:31:45;391.38;;;37.90;;
4305;SDS011;2166;49.926;8.608;2023-12-14T00:34:15;487.42;;;42.97;;
4305;SDS011;2166;49.926;8.608;2023-12-14T00:36:43;477.50;;;40.28;;
4305;SDS011;2166;49.926;8.608;2023-12-14T00:39:12;488.77;;;43.90;;
4305;SDS011;2166;49.926;8.608;2023-12-14T00:41:40;410.77;;;37.40;;
4305;SDS011;2166;49.926;8.608;2023-12-14T00:44:09;338.70;;;33.88;;
4305;SDS011;2166;49.926;8.608;2023-12-14T00:46:38;322.08;;;35.15;;
4305;SDS011;2166;49.926;8.608;2023-12-14T00:49:08;425.05;;;37.38;;
4305;SDS011;2166;49.926;8.608;2023-12-14T00:51:39;351.38;;;31.65;;
4305;SDS011;2166;49.926;8.608;2023-12-14T00:54:07;307.23;;;33.22;;
4305;SDS011;2166;49.926;8.608;2023-12-14T00:56:39;182.40;;;23.40;;
4305;SDS011;2166;49.926;8.608;2023-12-14T00:59:07;170.35;;;23.67;;
4305;SDS011;2166;49.926;8.608;2023-12-14T01:01:36;463.70;;;42.13;;
4305;SDS011;2166;49.926;8.608;2023-12-14T01:04:04;182.45;;;25.02;;
4305;SDS011;2166;49.926;8.608;2023-12-14T01:06:32;130.80;;;21.65;;
4305;SDS011;2166;49.926;8.608;2023-12-14T01:09:04;222.85;;;29.38;;
4305;SDS011;2166;49.926;8.608;2023-12-14T01:11:34;256.17;;;30.25;;
4305;SDS011;2166;49.926;8.608;2023-12-14T01:14:03;173.52;;;22.73;;
4305;SDS011;2166;49.926;8.608;2023-12-14T01:16:31;227.65;;;30.40;;
4305;SDS011;2166;49.926;8.608;2023-12-14T01:19:02;215.90;;;29.02;;
4305;SDS011;2166;49.926;8.608;2023-12-14T01:21:32;121.18;;;21.00;;
4305;SDS011;2166;49.926;8.608;2023-12-14T01:24:01;170.55;;;28.33;;
4305;SDS011;2166;49.926;8.608;2023-12-14T01:26:31;188.10;;;26.88;;
4305;SDS011;2166;49.926;8.608;2023-12-14T01:28:59;268.48;;;40.40;;
4305;SDS011;2166;49.926;8.608;2023-12-14T01:31:28;155.32;;;25.73;;
4305;SDS011;2166;49.926;8.608;2023-12-14T01:33:56;281.08;;;35.67;;
4305;SDS011;2166;49.926;8.608;2023-12-14T01:36:25;369.20;;;47.28;;
4305;SDS011;2166;49.926;8.608;2023-12-14T01:38:54;228.13;;;37.20;;
4305;SDS011;2166;49.926;8.608;2023-12-14T01:41:22;257.00;;;36.47;;
4305;SDS011;2166;49.926;8.608;2023-12-14T01:43:52;290.55;;;38.72;;
4305;SDS011;2166;49.926;8.608;2023-12-14T01:46:21;296.10;;;40.78;;
4305;SDS011;2166;49.926;8.608;2023-12-14T01:48:50;265.60;;;41.40;;
4305;SDS011;2166;49.926;8.608;2023-12-14T01:51:19;249.93;;;36.03;;
4305;SDS011;2166;49.926;8.608;2023-12-14T01:53:48;221.43;;;38.17;;
4305;SDS011;2166;49.926;8.608;2023-12-14T01:56:16;245.27;;;39.38;;
4305;SDS011;2166;49.926;8.608;2023-12-14T01:58:44;291.55;;;40.65;;
4305;SDS011;2166;49.926;8.608;2023-12-14T02:01:17;430.38;;;50.83;;
4305;SDS011;2166;49.926;8.608;2023-12-14T02:03:50;206.88;;;34.95;;
4305;SDS011;2166;49.926;8.608;2023-12-14T02:06:20;75.97;;;24.27;;
4305;SDS011;2166;49.926;8.608;2023-12-14T02:08:49;168.48;;;33.78;;
4305;SDS011;2166;49.926;8.608;2023-12-14T02:11:17;51.10;;;24.13;;
4305;SDS011;2166;49.926;8.608;2023-12-14T02:13:46;280.25;;;43.60;;
4305;SDS011;2166;49.926;8.608;2023-12-14T02:16:15;138.32;;;30.17;;
4305;SDS011;2166;49.926;8.608;2023-12-14T02:18:45;200.70;;;36.70;;
4305;SDS011;2166;49.926;8.608;2023-12-14T02:21:14;361.50;;;47.33;;
4305;SDS011;2166;49.926;8.608;2023-12-14T02:23:44;195.65;;;31.77;;
4305;SDS011;2166;49.926;8.608;2023-12-14T02:26:13;412.77;;;46.05;;
4305;SDS011;2166;49.926;8.608;2023-12-14T02:28:42;288.40;;;43.88;;
4305;SDS011;2166;49.926;8.608;2023-12-14T02:31:11;266.08;;;43.33;;
4305;SDS011;2166;49.926;8.608;2023-12-14T02:33:39;358.63;;;44.50;;
4305;SDS011;2166;49.926;8.608;2023-12-14T02:36:10;241.27;;;37.83;;
4305;SDS011;2166;49.926;8.608;2023-12-14T02:38:39;186.82;;;35.15;;
4305;SDS011;2166;49.926;8.608;2023-12-14T02:41:09;196.70;;;38.00;;
4305;SDS011;2166;49.926;8.608;2023-12-14T02:43:38;193.32;;;37.88;;
4305;SDS011;2166;49.926;8.608;2023-12-14T02:46:07;234.60;;;40.05;;
4305;SDS011;2166;49.926;8.608;2023-12-14T02:48:40;135.73;;;31.75;;
4305;SDS011;2166;49.926;8.608;2023-12-14T02:51:12;239.63;;;40.67;;
4305;SDS011;2166;49.926;8.608;2023-12-14T02:53:41;224.52;;;37.40;;
4305;SDS011;2166;49.926;8.608;2023-12-14T02:56:11;144.35;;;33.75;;
4305;SDS011;2166;49.926;8.608;2023-12-14T02:58:40;214.02;;;35.92;;
4305;SDS011;2166;49.926;8.608;2023-12-14T03:01:08;214.73;;;37.65;;
4305;SDS011;2166;49.926;8.608;2023-12-14T03:03:38;170.45;;;34.95;;
4305;SDS011;2166;49.926;8.608;2023-12-14T03:06:06;215.25;;;39.17;;
4305;SDS011;2166;49.926;8.608;2023-12-14T03:08:35;259.45;;;40.83;;
4305;SDS011;2166;49.926;8.608;2023-12-14T03:11:03;156.43;;;33.10;;
4305;SDS011;2166;49.926;8.608;2023-12-14T03:13:33;151.15;;;34.35;;
4305;SDS011;2166;49.926;8.608;2023-12-14T03:16:01;80.68;;;28.75;;
4305;SDS011;2166;49.926;8.608;2023-12-14T03:18:30;101.05;;;32.17;;
4305;SDS011;2166;49.926;8.608;2023-12-14T03:20:58;95.07;;;32.13;;
4305;SDS011;2166;49.926;8.608;2023-12-14T03:23:27;84.57;;;29.38;;
4305;SDS011;2166;49.926;8.608;2023-12-14T03:25:56;214.05;;;37.60;;
4305;SDS011;2166;49.926;8.608;2023-12-14T03:28:24;93.72;;;31.02;;
4305;SDS011;2166;49.926;8.608;2023-12-14T03:30:54;58.17;;;26.08;;
4305;SDS011;2166;49.926;8.608;2023-12-14T03:33:23;54.65;;;25.30;;
4305;SDS011;2166;49.926;8.608;2023-12-14T03:35:51;77.43;;;28.30;;
4305;SDS011;2166;49.926;8.608;2023-12-14T03:38:20;49.55;;;25.50;;
4305;SDS011;2166;49.926;8.608;2023-12-14T03:40:49;61.80;;;27.20;;
4305;SDS011;2166;49.926;8.608;2023-12-14T03:43:19;59.10;;;27.02;;
4305;SDS011;2166;49.926;8.608;2023-12-14T03:45:47;61.95;;;27.80;;
4305;SDS011;2166;49.926;8.608;2023-12-14T03:48:18;59.13;;;26.00;;
4305;SDS011;2166;49.926;8.608;2023-12-14T03:50:47;50.95;;;26.30;;
4305;SDS011;2166;49.926;8.608;2023-12-14T03:53:15;54.15;;;25.92;;
4305;SDS011;2166;49.926;8.608;2023-12-14T03:55:43;57.47;;;24.92;;
4305;SDS011;2166;49.926;8.608;2023-12-14T03:58:12;51.38;;;26.38;;
4305;SDS011;2166;49.926;8.608;2023-12-14T04:00:41;62.65;;;28.45;;
4305;SDS011;2166;49.926;8.608;2023-12-14T04:03:09;57.35;;;27.23;;
4305;SDS011;2166;49.926;8.608;2023-12-14T04:05:39;47.95;;;24.38;;
4305;SDS011;2166;49.926;8.608;2023-12-14T04:08:07;58.45;;;26.10;;
4305;SDS011;2166;49.926;8.608;2023-12-14T04:10:36;63.53;;;27.05;;
4305;SDS011;2166;49.926;8.608;2023-12-14T04:13:08;56.72;;;23.45;;
4305;SDS011;2166;49.926;8.608;2023-12-14T04:15:37;65.57;;;26.55;;
4305;SDS011;2166;49.926;8.608;2023-12-14T04:18:06;54.88;;;24.50;;
4305;SDS011;2166;49.926;8.608;2023-12-14T04:20:35;47.03;;;23.27;;
4305;SDS011;2166;49.926;8.608;2023-12-14T04:23:05;56.58;;;25.48;;
4305;SDS011;2166;49.926;8.608;2023-12-14T04:25:34;47.17;;;24.05;;
4305;SDS011;2166;49.926;8.608;2023-12-14T04:28:04;54.45;;;25.17;;
4305;SDS011;2166;49.926;8.608;2023-12-14T04:30:33;49.65;;;23.60;;
4305;SDS011;2166;49.926;8.608;2023-12-14T04:33:01;48.03;;;23.85;;
4305;SDS011;2166;49.926;8.608;2023-12-14T04:35:32;50.88;;;22.92;;
4305;SDS011;2166;49.926;8.608;2023-12-14T04:38:05;52.33;;;24.00;;
4305;SDS011;2166;49.926;8.608;2023-12-14T04:40:33;55.22;;;24.25;;
4305;SDS011;2166;49.926;8.608;2023-12-14T04:43:02;51.22;;;24.10;;
4305;SDS011;2166;49.926;8.608;2023-12-14T04:45:30;58.33;;;25.60;;
4305;SDS011;2166;49.926;8.608;2023-12-14T04:47:59;55.55;;;25.08;;
4305;SDS011;2166;49.926;8.608;2023-12-14T04:50:29;42.58;;;21.98;;
4305;SDS011;2166;49.926;8.608;2023-12-14T04:52:59;65.75;;;27.10;;
4305;SDS011;2166;49.926;8.608;2023-12-14T04:55:31;55.10;;;25.33;;
4305;SDS011;2166;49.926;8.608;2023-12-14T04:57:59;52.67;;;24.88;;
4305;SDS011;2166;49.926;8.608;2023-12-14T05:00:27;56.15;;;26.58;;
4305;SDS011;2166;49.926;8.608;2023-12-14T05:02:56;58.03;;;27.13;;
4305;SDS011;2166;49.926;8.608;2023-12-14T05:05:24;50.35;;;25.20;;
4305;SDS011;2166;49.926;8.608;2023-12-14T05:07:53;51.88;;;25.33;;
4305;SDS011;2166;49.926;8.608;2023-12-14T05:10:21;55.95;;;26.25;;
4305;SDS011;2166;49.926;8.608;2023-12-14T05:12:51;48.22;;;24.52;;
4305;SDS011;2166;49.926;8.608;2023-12-14T05:15:19;48.80;;;25.02;;
4305;SDS011;2166;49.926;8.608;2023-12-14T05:17:48;53.05;;;25.60;;
4305;SDS011;2166;49.926;8.608;2023-12-14T05:20:16;46.83;;;23.15;;
4305;SDS011;2166;49.926;8.608;2023-12-14T05:22:46;42.58;;;22.15;;
4305;SDS011;2166;49.926;8.608;2023-12-14T05:25:15;52.90;;;23.42;;
4305;SDS011;2166;49.926;8.608;2023-12-14T05:27:44;47.00;;;22.88;;
4305;SDS011;2166;49.926;8.608;2023-12-14T05:30:14;48.60;;;23.23;;
4305;SDS011;2166;49.926;8.608;2023-12-14T05:32:43;46.30;;;23.23;;
4305;SDS011;2166;49.926;8.608;2023-12-14T05:35:11;49.10;;;24.00;;
4305;SDS011;2166;49.926;8.608;2023-12-14T05:37:44;57.80;;;24.90;;
4305;SDS011;2166;49.926;8.608;2023-12-14T05:40:13;52.45;;;25.52;;
4305;SDS011;2166;49.926;8.608;2023-12-14T05:42:42;48.90;;;25.10;;
4305;SDS011;2166;49.926;8.608;2023-12-14T05:45:10;55.20;;;25.63;;
4305;SDS011;2166;49.926;8.608;2023-12-14T05:47:40;53.95;;;26.55;;
4305;SDS011;2166;49.926;8.608;2023-12-14T05:50:10;51.85;;;25.05;;
4305;SDS011;2166;49.926;8.608;2023-12-14T05:52:40;48.83;;;25.45;;
4305;SDS011;2166;49.926;8.608;2023-12-14T05:55:09;45.10;;;26.20;;
4305;SDS011;2166;49.926;8.608;2023-12-14T05:57:38;53.95;;;27.25;;
4305;SDS011;2166;49.926;8.608;2023-12-14T06:00:09;47.45;;;26.08;;
4305;SDS011;2166;49.926;8.608;2023-12-14T06:02:40;35.00;;;21.90;;
4305;SDS011;2166;49.926;8.608;2023-12-14T06:05:11;46.90;;;26.00;;
4305;SDS011;2166;49.926;8.608;2023-12-14T06:07:40;50.10;;;25.70;;
4305;SDS011;2166;49.926;8.608;2023-12-14T06:10:09;42.42;;;24.60;;
4305;SDS011;2166;49.926;8.608;2023-12-14T06:12:39;52.97;;;27.15;;
4305;SDS011;2166;49.926;8.608;2023-12-14T06:15:08;46.05;;;24.05;;
4305;SDS011;2166;49.926;8.608;2023-12-14T06:17:37;47.70;;;25.05;;
4305;SDS011;2166;49.926;8.608;2023-12-14T06:20:09;51.85;;;25.90;;
4305;SDS011;2166;49.926;8.608;2023-12-14T06:22:38;50.08;;;25.85;;
4305;SDS011;2166;49.926;8.608;2023-12-14T06:25:07;45.35;;;25.10;;
4305;SDS011;2166;49.926;8.608;2023-12-14T06:27:36;43.28;;;25.30;;
4305;SDS011;2166;49.926;8.608;2023-12-14T06:30:06;50.00;;;24.20;;
4305;SDS011;2166;49.926;8.608;2023-12-14T06:32:37;41.13;;;25.52;;
4305;SDS011;2166;49.926;8.608;2023-12-14T06:35:06;52.47;;;25.88;;
4305;SDS011;2166;49.926;8.608;2023-12-14T06:37:36;45.20;;;25.15;;
4305;SDS011;2166;49.926;8.608;2023-12-14T06:40:05;50.22;;;25.60;;
4305;SDS011;2166;49.926;8.608;2023-12-14T06:42:35;54.67;;;27.83;;
4305;SDS011;2166;49.926;8.608;2023-12-14T06:45:04;49.13;;;26.30;;
4305;SDS011;2166;49.926;8.608;2023-12-14T06:47:34;76.03;;;29.63;;
4305;SDS011;2166;49.926;8.608;2023-12-14T06:50:02;53.10;;;27.90;;
4305;SDS011;2166;49.926;8.608;2023-12-14T06:52:32;53.33;;;26.60;;
4305;SDS011;2166;49.926;8.608;2023-12-14T06:55:01;53.92;;;26.85;;
4305;SDS011;2166;49.926;8.608;2023-12-14T06:57:32;60.38;;;27.15;;
4305;SDS011;2166;49.926;8.608;2023-12-14T07:00:01;49.90;;;26.33;;
4305;SDS011;2166;49.926;8.608;2023-12-14T07:02:29;57.75;;;27.98;;
4305;SDS011;2166;49.926;8.608;2023-12-14T07:04:58;50.83;;;25.73;;
4305;SDS011;2166;49.926;8.608;2023-12-14T07:07:27;50.70;;;25.17;;
4305;SDS011;2166;49.926;8.608;2023-12-14T07:09:56;46.65;;;25.17;;
4305;SDS011;2166;49.926;8.608;2023-12-14T07:12:24;50.05;;;26.23;;
4305;SDS011;2166;49.926;8.608;2023-12-14T07:14:53;57.35;;;25.92;;
4305;SDS011;2166;49.926;8.608;2023-12-14T07:17:22;49.80;;;26.42;;
4305;SDS011;2166;49.926;8.608;2023-12-14T07:19:51;45.05;;;24.48;;
4305;SDS011;2166;49.926;8.608;2023-12-14T07:22:24;43.55;;;22.58;;
4305;SDS011;2166;49.926;8.608;2023-12-14T07:24:52;46.03;;;23.00;;
4305;SDS011;2166;49.926;8.608;2023-12-14T07:27:27;44.50;;;24.05;;
4305;SDS011;2166;49.926;8.608;2023-12-14T07:29:55;41.72;;;21.38;;
4305;SDS011;2166;49.926;8.608;2023-12-14T07:32:24;39.20;;;20.80;;
4305;SDS011;2166;49.926;8.608;2023-12-14T07:34:53;38.85;;;22.95;;
4305;SDS011;2166;49.926;8.608;2023-12-14T07:37:22;35.55;;;21.05;;
4305;SDS011;2166;49.926;8.608;2023-12-14T07:39:52;42.97;;;21.33;;
4305;SDS011;2166;49.926;8.608;2023-12-14T07:42:20;38.72;;;20.52;;
4305;SDS011;2166;49.926;8.608;2023-12-14T07:44:50;37.75;;;20.30;;
4305;SDS011;2166;49.926;8.608;2023-12-14T07:47:18;37.95;;;20.85;;
4305;SDS011;2166;49.926;8.608;2023-12-14T07:49:46;35.75;;;21.20;;
4305;SDS011;2166;49.926;8.608;2023-12-14T07:52:14;39.58;;;21.92;;
4305;SDS011;2166;49.926;8.608;2023-12-14T07:54:43;40.20;;;22.58;;
4305;SDS011;2166;49.926;8.608;2023-12-14T07:57:14;44.33;;;21.52;;
4305;SDS011;2166;49.926;8.608;2023-12-14T07:59:42;40.38;;;21.30;;
4305;SDS011;2166;49.926;8.608;2023-12-14T08:02:12;40.30;;;21.33;;
4305;SDS011;2166;49.926;8.608;2023-12-14T08:04:41;44.33;;;21.85;;
4305;SDS011;2166;49.926;8.608;2023-12-14T08:07:11;38.38;;;20.98;;
4305;SDS011;2166;49.926;8.608;2023-12-14T08:09:39;42.10;;;21.98;;
4305;SDS011;2166;49.926;8.608;2023-12-14T08:12:08;35.03;;;21.17;;
4305;SDS011;2166;49.926;8.608;2023-12-14T08:14:38;37.97;;;21.50;;
4305;SDS011;2166;49.926;8.608;2023-12-14T08:17:11;36.53;;;20.83;;
4305;SDS011;2166;49.926;8.608;2023-12-14T08:19:40;32.47;;;20.70;;
4305;SDS011;2166;49.926;8.608;2023-12-14T08:22:09;32.75;;;19.67;;
4305;SDS011;2166;49.926;8.608;2023-12-14T08:24:39;34.90;;;20.63;;
4305;SDS011;2166;49.926;8.608;2023-12-14T08:27:09;35.40;;;20.42;;
4305;SDS011;2166;49.926;8.608;2023-12-14T08:29:39;32.38;;;18.25;;
4305;SDS011;2166;49.926;8.608;2023-12-14T08:32:07;33.67;;;18.42;;
4305;SDS011;2166;49.926;8.608;2023-12-14T08:34:38;29.80;;;16.33;;
4305;SDS011;2166;49.926;8.608;2023-12-14T08:37:08;29.80;;;16.85;;
4305;SDS011;2166;49.926;8.608;2023-12-14T08:39:36;34.78;;;18.40;;
4305;SDS011;2166;49.926;8.608;2023-12-14T08:42:05;33.08;;;17.77;;
4305;SDS011;2166;49.926;8.608;2023-12-14T08:44:34;35.00;;;16.98;;
4305;SDS011;2166;49.926;8.608;2023-12-14T08:47:04;27.65;;;14.77;;
4305;SDS011;2166;49.926;8.608;2023-12-14T08:49:33;28.42;;;15.60;;
4305;SDS011;2166;49.926;8.608;2023-12-14T08:52:03;30.70;;;15.02;;
4305;SDS011;2166;49.926;8.608;2023-12-14T08:54:32;26.95;;;15.80;;
4305;SDS011;2166;49.926;8.608;2023-12-14T08:57:01;27.80;;;16.70;;
4305;SDS011;2166;49.926;8.608;2023-12-14T08:59:30;27.05;;;14.32;;
4305;SDS011;2166;49.926;8.608;2023-12-14T09:01:59;29.42;;;14.90;;
4305;SDS011;2166;49.926;8.608;2023-12-14T09:04:28;26.17;;;14.80;;
4305;SDS011;2166;49.926;8.608;2023-12-14T09:06:57;22.48;;;13.43;;
4305;SDS011;2166;49.926;8.608;2023-12-14T09:09:26;25.00;;;13.50;;
4305;SDS011;2166;49.926;8.608;2023-12-14T09:11:55;20.73;;;12.63;;
4305;SDS011;2166;49.926;8.608;2023-12-14T09:14:24;26.90;;;14.45;;
4305;SDS011;2166;49.926;8.608;2023-12-14T09:16:53;25.65;;;14.48;;
4305;SDS011;2166;49.926;8.608;2023-12-14T09:19:22;25.92;;;14.25;;
4305;SDS011;2166;49.926;8.608;2023-12-14T09:21:51;23.90;;;14.38;;
4305;SDS011;2166;49.926;8.608;2023-12-14T09:24:19;26.02;;;15.00;;
4305;SDS011;2166;49.926;8.608;2023-12-14T09:26:50;30.58;;;15.20;;
4305;SDS011;2166;49.926;8.608;2023-12-14T09:29:18;27.60;;;15.90;;
4305;SDS011;2166;49.926;8.608;2023-12-14T09:31:48;25.67;;;15.48;;
4305;SDS011;2166;49.926;8.608;2023-12-14T09:34:17;28.70;;;14.85;;
4305;SDS011;2166;49.926;8.608;2023-12-14T09:36:45;29.38;;;16.30;;
4305;SDS011;2166;49.926;8.608;2023-12-14T09:39:15;27.42;;;15.30;;
4305;SDS011;2166;49.926;8.608;2023-12-14T09:41:46;28.38;;;15.38;;
4305;SDS011;2166;49.926;8.608;2023-12-14T09:44:16;31.20;;;16.17;;
4305;SDS011;2166;49.926;8.608;2023-12-14T09:46:45;22.77;;;14.65;;
4305;SDS011;2166;49.926;8.608;2023-12-14T09:49:16;21.23;;;13.95;;
4305;SDS011;2166;49.926;8.608;2023-12-14T09:51:46;26.88;;;14.70;;
4305;SDS011;2166;49.926;8.608;2023-12-14T09:54:15;25.27;;;14.23;;
4305;SDS011;2166;49.926;8.608;2023-12-14T09:56:47;28.00;;;14.15;;
4305;SDS011;2166;49.926;8.608;2023-12-14T09:59:18;20.48;;;12.73;;
4305;SDS011;2166;49.926;8.608;2023-12-14T10:01:47;19.92;;;13.13;;
4305;SDS011;2166;49.926;8.608;2023-12-14T10:04:16;20.77;;;12.10;;
4305;SDS011;2166;49.926;8.608;2023-12-14T10:06:47;17.45;;;11.57;;
4305;SDS011;2166;49.926;8.608;2023-12-14T10:09:15;17.35;;;11.32;;
4305;SDS011;2166;49.926;8.608;2023-12-14T10:12:03;17.10;;;10.85;;
4305;SDS011;2166;49.926;8.608;2023-12-14T10:14:35;15.15;;;9.68;;
4305;SDS011;2166;49.926;8.608;2023-12-14T10:19:59;17.20;;;9.55;;
4305;SDS011;2166;49.926;8.608;2023-12-14T10:22:32;17.52;;;10.27;;
4305;SDS011;2166;49.926;8.608;2023-12-14T10:25:00;14.25;;;8.40;;
4305;SDS011;2166;49.926;8.608;2023-12-14T10:27:30;13.50;;;8.13;;
4305;SDS011;2166;49.926;8.608;2023-12-14T10:30:01;19.05;;;9.10;;
4305;SDS011;2166;49.926;8.608;2023-12-14T10:32:32;13.73;;;7.82;;
4305;SDS011;2166;49.926;8.608;2023-12-14T10:35:02;11.77;;;7.70;;
4305;SDS011;2166;49.926;8.608;2023-12-14T10:37:31;11.90;;;8.25;;
4305;SDS011;2166;49.926;8.608;2023-12-14T10:40:05;12.25;;;7.00;;
4305;SDS011;2166;49.926;8.608;2023-12-14T10:42:37;12.32;;;7.18;;
4305;SDS011;2166;49.926;8.608;2023-12-14T10:45:10;10.35;;;6.50;;
4305;SDS011;2166;49.926;8.608;2023-12-14T10:47:47;10.38;;;7.35;;
4305;SDS011;2166;49.926;8.608;2023-12-14T10:50:16;11.88;;;6.78;;
4305;SDS011;2166;49.926;8.608;2023-12-14T10:52:46;13.20;;;7.80;;
4305;SDS011;2166;49.926;8.608;2023-12-14T10:55:18;10.80;;;6.90;;
4305;SDS011;2166;49.926;8.608;2023-12-14T10:57:54;13.23;;;6.63;;
4305;SDS011;2166;49.926;8.608;2023-12-14T11:00:23;12.43;;;6.88;;
4305;SDS011;2166;49.926;8.608;2023-12-14T11:02:52;10.68;;;6.35;;
4305;SDS011;2166;49.926;8.608;2023-12-14T11:05:21;11.98;;;6.45;;
4305;SDS011;2166;49.926;8.608;2023-12-14T11:07:59;15.10;;;6.57;;
4305;SDS011;2166;49.926;8.608;2023-12-14T11:10:36;9.30;;;5.82;;
4305;SDS011;2166;49.926;8.608;2023-12-14T11:13:06;10.50;;;6.43;;
4305;SDS011;2166;49.926;8.608;2023-12-14T11:15:40;9.95;;;6.05;;
4305;SDS011;2166;49.926;8.608;2023-12-14T11:18:23;11.80;;;6.22;;
4305;SDS011;2166;49.926;8.608;2023-12-14T11:20:55;11.18;;;5.85;;
4305;SDS011;2166;49.926;8.608;2023-12-14T11:23:30;11.63;;;6.85;;
4305;SDS011;2166;49.926;8.608;2023-12-14T11:26:01;9.30;;;5.75;;
4305;SDS011;2166;49.926;8.608;2023-12-14T11:28:32;11.30;;;5.90;;
4305;SDS011;2166;49.926;8.608;2023-12-14T11:31:07;8.98;;;5.93;;
4305;SDS011;2166;49.926;8.608;2023-12-14T11:33:39;9.25;;;6.50;;
4305;SDS011;2166;49.926;8.608;2023-12-14T11:36:11;11.77;;;6.72;;
4305;SDS011;2166;49.926;8.608;2023-12-14T11:38:41;13.80;;;7.32;;
4305;SDS011;2166;49.926;8.608;2023-12-14T11:41:12;10.65;;;6.60;;
4305;SDS011;2166;49.926;8.608;2023-12-14T11:43:42;10.25;;;6.72;;
4305;SDS011;2166;49.926;8.608;2023-12-14T11:46:16;11.13;;;6.82;;
4305;SDS011;2166;49.926;8.608;2023-12-14T11:48:46;10.68;;;6.07;;
4305;SDS011;2166;49.926;8.608;2023-12-14T11:51:15;9.15;;;5.90;;
4305;SDS011;2166;49.926;8.608;2023-12-14T11:53:46;11.38;;;5.88;;
4305;SDS011;2166;49.926;8.608;2023-12-14T11:56:17;12.35;;;6.78;;
4305;SDS011;2166;49.926;8.608;2023-12-14T11:58:46;11.50;;;6.63;;
4305;SDS011;2166;49.926;8.608;2023-12-14T12:01:17;10.77;;;6.40;;
4305;SDS011;2166;49.926;8.608;2023-12-14T12:03:47;11.65;;;6.10;;
4305;SDS011;2166;49.926;8.608;2023-12-14T12:06:19;10.32;;;6.53;;
4305;SDS011;2166;49.926;8.608;2023-12-14T12:08:51;9.30;;;6.28;;
4305;SDS011;2166;49.926;8.608;2023-12-14T12:11:20;11.73;;;6.53;;
4305;SDS011;2166;49.926;8.608;2023-12-14T12:13:55;12.25;;;7.07;;
4305;SDS011;2166;49.926;8.608;2023-12-14T12:16:28;10.40;;;7.20;;
4305;SDS011;2166;49.926;8.608;2023-12-14T12:18:57;11.75;;;7.35;;
4305;SDS011;2166;49.926;8.608;2023-12-14T12:21:26;9.23;;;6.40;;
4305;SDS011;2166;49.926;8.608;2023-12-14T12:23:55;10.00;;;6.20;;
4305;SDS011;2166;49.926;8.608;2023-12-14T12:26:24;8.35;;;4.78;;
4305;SDS011;2166;49.926;8.608;2023-12-14T12:28:52;7.30;;;5.28;;
4305;SDS011;2166;49.926;8.608;2023-12-14T12:31:21;8.80;;;5.45;;
4305;SDS011;2166;49.926;8.608;2023-12-14T12:33:52;5.85;;;4.82;;
4305;SDS011;2166;49.926;8.608;2023-12-14T12:36:20;7.45;;;5.13;;
4305;SDS011;2166;49.926;8.608;2023-12-14T12:38:48;9.20;;;4.88;;
4305;SDS011;2166;49.926;8.608;2023-12-14T12:41:17;5.95;;;4.03;;
4305;SDS011;2166;49.926;8.608;2023-12-14T12:43:46;6.13;;;3.75;;
4305;SDS011;2166;49.926;8.608;2023-12-14T12:46:16;6.13;;;4.25;;
4305;SDS011;2166;49.926;8.608;2023-12-14T12:48:45;5.50;;;3.78;;
4305;SDS011;2166;49.926;8.608;2023-12-14T12:51:15;5.38;;;3.63;;
4305;SDS011;2166;49.926;8.608;2023-12-14T12:53:44;5.85;;;3.70;;
4305;SDS011;2166;49.926;8.608;2023-12-14T12:56:18;6.38;;;4.05;;
4305;SDS011;2166;49.926;8.608;2023-12-14T12:58:46;9.32;;;4.00;;
4305;SDS011;2166;49.926;8.608;2023-12-14T13:01:17;5.63;;;4.15;;
4305;SDS011;2166;49.926;8.608;2023-12-14T13:03:46;5.25;;;4.05;;
4305;SDS011;2166;49.926;8.608;2023-12-14T13:06:17;5.93;;;3.50;;
4305;SDS011;2166;49.926;8.608;2023-12-14T13:08:45;5.47;;;3.50;;
4305;SDS011;2166;49.926;8.608;2023-12-14T13:11:13;3.63;;;3.13;;
4305;SDS011;2166;49.926;8.608;2023-12-14T13:13:42;5.03;;;4.07;;
4305;SDS011;2166;49.926;8.608;2023-12-14T13:16:10;5.25;;;3.53;;
4305;SDS011;2166;49.926;8.608;2023-12-14T13:18:40;5.53;;;3.50;;
4305;SDS011;2166;49.926;8.608;2023-12-14T13:21:10;4.82;;;3.25;;
4305;SDS011;2166;49.926;8.608;2023-12-14T13:23:40;5.70;;;3.05;;
4305;SDS011;2166;49.926;8.608;2023-12-14T13:26:13;3.58;;;2.92;;
4305;SDS011;2166;49.926;8.608;2023-12-14T13:28:41;3.92;;;3.25;;
4305;SDS011;2166;49.926;8.608;2023-12-14T13:31:10;4.50;;;3.28;;
4305;SDS011;2166;49.926;8.608;2023-12-14T13:33:38;4.13;;;3.35;;
4305;SDS011;2166;49.926;8.608;2023-12-14T13:36:07;7.35;;;5.35;;
4305;SDS011;2166;49.926;8.608;2023-12-14T13:38:36;4.55;;;3.33;;
4305;SDS011;2166;49.926;8.608;2023-12-14T13:41:06;4.90;;;3.90;;
4305;SDS011;2166;49.926;8.608;2023-12-14T13:43:35;6.63;;;3.75;;
4305;SDS011;2166;49.926;8.608;2023-12-14T13:46:04;6.75;;;4.13;;
4305;SDS011;2166;49.926;8.608;2023-12-14T13:48:46;6.50;;;4.00;;
4305;SDS011;2166;49.926;8.608;2023-12-14T13:51:15;4.97;;;3.85;;
4305;SDS011;2166;49.926;8.608;2023-12-14T13:53:43;6.72;;;4.57;;
4305;SDS011;2166;49.926;8.608;2023-12-14T13:56:13;6.30;;;3.90;;
4305;SDS011;2166;49.926;8.608;2023-12-14T13:58:41;7.53;;;4.47;;
4305;SDS011;2166;49.926;8.608;2023-12-14T14:01:09;6.63;;;5.07;;
4305;SDS011;2166;49.926;8.608;2023-12-14T14:03:38;5.65;;;4.43;;
4305;SDS011;2166;49.926;8.608;2023-12-14T14:06:09;8.70;;;5.95;;
4305;SDS011;2166;49.926;8.608;2023-12-14T14:08:38;9.55;;;5.63;;
4305;SDS011;2166;49.926;8.608;2023-12-14T14:11:06;8.23;;;5.40;;
4305;SDS011;2166;49.926;8.608;2023-12-14T14:13:38;6.38;;;5.22;;
4305;SDS011;2166;49.926;8.608;2023-12-14T14:16:07;8.90;;;5.20;;
4305;SDS011;2166;49.926;8.608;2023-12-14T14:18:37;6.05;;;5.07;;
4305;SDS011;2166;49.926;8.608;2023-12-14T14:21:05;7.45;;;5.47;;
4305;SDS011;2166;49.926;8.608;2023-12-14T14:23:34;10.48;;;6.82;;
4305;SDS011;2166;49.926;8.608;2023-12-14T14:26:03;10.40;;;6.55;;
4305;SDS011;2166;49.926;8.608;2023-12-14T14:28:33;10.30;;;6.55;;
4305;SDS011;2166;49.926;8.608;2023-12-14T14:31:04;9.38;;;6.57;;
4305;SDS011;2166;49.926;8.608;2023-12-14T14:33:38;9.38;;;6.18;;
4305;SDS011;2166;49.926;8.608;2023-12-14T14:36:06;10.70;;;6.65;;
4305;SDS011;2166;49.926;8.608;2023-12-14T14:38:36;9.50;;;6.28;;
4305;SDS011;2166;49.926;8.608;2023-12-14T14:41:04;9.77;;;6.55;;
4305;SDS011;2166;49.926;8.608;2023-12-14T14:43:33;11.18;;;7.53;;
4305;SDS011;2166;49.926;8.608;2023-12-14T14:46:05;10.90;;;6.88;;
4305;SDS011;2166;49.926;8.608;2023-12-14T14:48:34;10.57;;;6.85;;
4305;SDS011;2166;49.926;8.608;2023-12-14T14:51:04;13.75;;;7.50;;
4305;SDS011;2166;49.926;8.608;2023-12-14T14:53:35;12.52;;;8.13;;
4305;SDS011;2166;49.926;8.608;2023-12-14T14:56:05;12.10;;;7.47;;
4305;SDS011;2166;49.926;8.608;2023-12-14T14:58:36;12.20;;;7.63;;
4305;SDS011;2166;49.926;8.608;2023-12-14T15:01:06;11.45;;;7.25;;
4305;SDS011;2166;49.926;8.608;2023-12-14T15:03:35;12.77;;;7.65;;
4305;SDS011;2166;49.926;8.608;2023-12-14T15:06:04;12.00;;;7.95;;
4305;SDS011;2166;49.926;8.608;2023-12-14T15:08:35;10.32;;;7.13;;